Time;durP1;ratioP1;P1;durP2;ratioP2;P2;SDS_P1;SDS_P2;PMS_P1;PMS_P2;Temp;Humidity;BMP_temperature;BMP_pressure;BME280_temperature;BME280_humidity;BME280_pressure;Samples;Min_cycle;Max_cycle;Signal;HPM_P1;HPM_P2
2022/12/11 00:00:09;;;;;;;6.35;5.75;;;1.60;60.10;;;;;;5009195;28;20107;-79
2022/12/11 00:02:53;;;;;;;9.40;5.90;;;1.60;60.10;;;;;;5011339;28;20071;-79
2022/12/11 00:05:39;;;;;;;7.85;6.65;;;1.60;60.10;;;;;;5019726;28;21039;-79
2022/12/11 00:08:23;;;;;;;6.43;5.20;;;1.60;60.10;;;;;;5011685;28;20056;-78
2022/12/11 00:11:10;;;;;;;7.13;6.00;;;1.70;60.20;;;;;;5015404;28;20119;-78
2022/12/11 00:13:55;;;;;;;8.00;5.30;;;1.70;60.20;;;;;;5018481;28;20548;-78
2022/12/11 00:16:40;;;;;;;8.32;5.70;;;1.70;60.60;;;;;;5006330;28;20041;-78
2022/12/11 00:19:24;;;;;;;6.68;5.50;;;1.80;60.20;;;;;;4998474;28;20048;-79
2022/12/11 00:22:09;;;;;;;8.25;6.30;;;1.80;60.10;;;;;;5021275;28;20115;-78
2022/12/11 00:24:53;;;;;;;6.80;5.40;;;1.80;60.10;;;;;;5006984;28;20044;-78
2022/12/11 00:27:38;;;;;;;7.75;5.38;;;1.80;60.10;;;;;;5005043;28;20073;-79
2022/12/11 00:30:23;;;;;;;6.63;5.22;;;1.90;60.20;;;;;;5008073;28;20168;-78
2022/12/11 00:33:09;;;;;;;6.72;5.47;;;1.90;60.10;;;;;;5025866;28;20132;-78
2022/12/11 00:35:54;;;;;;;6.60;5.50;;;1.90;60.10;;;;;;5015220;28;20135;-79
2022/12/11 00:38:38;;;;;;;6.57;5.38;;;1.90;60.10;;;;;;5025464;28;20601;-80
2022/12/11 00:41:23;;;;;;;6.70;5.45;;;1.90;60.10;;;;;;5026424;28;20107;-80
2022/12/11 00:44:07;;;;;;;7.85;5.68;;;1.90;60.10;;;;;;5024019;28;20103;-78
2022/12/11 00:46:52;;;;;;;6.68;5.43;;;1.90;60.10;;;;;;5022852;28;20053;-78
2022/12/11 00:49:37;;;;;;;6.20;5.05;;;1.90;60.10;;;;;;5020318;28;20524;-78
2022/12/11 00:52:21;;;;;;;6.40;5.07;;;1.90;60.10;;;;;;5026922;28;20103;-77
2022/12/11 00:55:06;;;;;;;8.00;5.18;;;2.00;60.30;;;;;;5024396;28;20043;-78
2022/12/11 00:57:51;;;;;;;6.07;5.43;;;2.00;60.20;;;;;;5024790;28;20119;-79
2022/12/11 01:00:35;;;;;;;6.55;5.15;;;2.00;60.20;;;;;;5025116;28;20642;-77
2022/12/11 01:03:20;;;;;;;6.72;5.50;;;2.00;60.20;;;;;;5020041;28;20044;-77
2022/12/11 01:06:06;;;;;;;7.40;5.47;;;2.10;60.30;;;;;;5022266;28;20103;-78
2022/12/11 01:10:22;;;;;;;9.05;6.32;;;2.10;60.30;;;;;;5018248;28;20064;-77
2022/12/11 01:11:55;;;;;;;5.28;4.78;;;2.10;60.30;;;;;;5025815;28;20400;-76
2022/12/11 01:14:40;;;;;;;7.00;5.70;;;2.10;60.10;;;;;;5019424;28;20042;-78
2022/12/11 01:17:24;;;;;;;7.75;5.75;;;2.20;60.30;;;;;;5017297;28;20104;-79
2022/12/11 01:20:09;;;;;;;7.28;5.30;;;2.20;60.20;;;;;;5019491;28;20083;-79
2022/12/11 01:22:55;;;;;;;6.00;5.22;;;2.20;60.20;;;;;;5012948;28;20202;-79
2022/12/11 01:25:41;;;;;;;7.40;5.43;;;2.30;60.30;;;;;;5024276;28;20045;-78
2022/12/11 01:28:25;;;;;;;8.85;5.38;;;2.30;60.30;;;;;;5011882;28;20903;-78
2022/12/11 01:31:15;;;;;;;8.15;5.68;;;2.30;60.30;;;;;;5016667;28;20053;-78
2022/12/11 01:33:59;;;;;;;9.88;6.68;;;2.30;60.30;;;;;;5027226;28;20037;-78
2022/12/11 01:36:44;;;;;;;8.20;6.57;;;2.30;60.20;;;;;;5020232;28;20084;-78
2022/12/11 01:39:29;;;;;;;9.20;6.75;;;2.40;60.40;;;;;;5023050;28;20156;-78
2022/12/11 01:42:18;;;;;;;9.32;7.55;;;2.40;60.40;;;;;;5024031;28;20095;-78
2022/12/11 01:45:21;;;;;;;10.40;8.95;;;2.40;60.40;;;;;;5020593;28;20447;-78
2022/12/11 01:48:14;;;;;;;11.30;8.40;;;2.40;60.90;;;;;;5011432;28;20112;-78
2022/12/11 01:51:01;;;;;;;12.30;9.00;;;2.40;60.30;;;;;;5016738;28;20573;-78
2022/12/11 01:53:52;;;;;;;10.82;9.13;;;2.40;60.30;;;;;;5013721;28;20044;-77
2022/12/11 01:56:38;;;;;;;14.32;10.52;;;2.40;60.30;;;;;;5023660;28;20041;-77
2022/12/11 01:59:25;;;;;;;14.43;10.23;;;2.50;60.50;;;;;;5008702;28;20052;-77
2022/12/11 02:02:26;;;;;;;15.65;10.88;;;2.50;60.40;;;;;;5016108;28;20048;-78
2022/12/11 02:05:11;;;;;;;14.05;10.63;;;2.50;60.50;;;;;;5020724;28;20072;-78
2022/12/11 02:07:59;;;;;;;13.20;10.27;;;2.50;60.50;;;;;;5025142;28;20060;-78
2022/12/11 02:11:10;;;;;;;16.55;11.65;;;2.50;60.40;;;;;;5025114;28;20054;-77
2022/12/11 02:14:35;;;;;;;14.80;10.77;;;2.50;60.40;;;;;;5007856;28;20259;-77
2022/12/11 02:17:39;;;;;;;16.80;11.98;;;2.50;60.40;;;;;;4981206;28;20084;-77
2022/12/11 02:20:35;;;;;;;12.90;11.52;;;2.50;60.30;;;;;;5018372;28;20036;-77
2022/12/11 02:24:07;;;;;;;15.02;11.77;;;2.60;60.60;;;;;;5015905;28;20061;-77
2022/12/11 02:27:29;;;;;;;14.27;11.20;;;2.60;60.50;;;;;;4999165;28;20111;-77
2022/12/11 02:30:15;;;;;;;14.82;11.50;;;2.60;60.50;;;;;;5017748;28;20111;-77
2022/12/11 02:33:00;;;;;;;15.25;11.20;;;2.60;60.50;;;;;;5030301;28;20039;-78
2022/12/11 02:35:46;;;;;;;15.32;11.63;;;2.60;60.50;;;;;;5011664;28;20107;-78
2022/12/11 02:38:34;;;;;;;14.85;12.05;;;2.60;60.50;;;;;;5023001;28;20804;-78
2022/12/11 02:41:21;;;;;;;15.30;11.50;;;2.60;60.50;;;;;;5010138;28;20052;-78
2022/12/11 02:44:06;;;;;;;15.50;12.23;;;2.60;60.50;;;;;;5017013;28;20137;-79
2022/12/11 02:46:52;;;;;;;13.77;11.60;;;2.60;60.50;;;;;;5015832;28;20841;-79
2022/12/11 02:49:39;;;;;;;14.15;12.07;;;2.60;60.50;;;;;;5021896;28;20080;-79
2022/12/11 02:52:26;;;;;;;13.85;11.93;;;2.70;61.10;;;;;;5026872;28;20064;-79
2022/12/11 02:55:13;;;;;;;13.25;11.82;;;2.70;60.60;;;;;;5027823;28;20123;-79
2022/12/11 02:58:22;;;;;;;18.48;13.10;;;2.60;60.40;;;;;;5025394;28;20488;-79
2022/12/11 03:01:07;;;;;;;12.77;11.45;;;2.60;60.50;;;;;;5027113;28;20437;-79
2022/12/11 03:03:53;;;;;;;16.35;11.93;;;2.70;60.60;;;;;;5019528;28;20095;-79
2022/12/11 03:06:47;;;;;;;15.00;12.95;;;2.70;60.60;;;;;;5014996;28;20045;-80
2022/12/11 03:09:31;;;;;;;15.43;12.38;;;2.70;60.60;;;;;;5023894;28;20102;-80
2022/12/11 03:12:27;;;;;;;14.13;12.00;;;2.80;60.80;;;;;;5026844;28;20060;-78
2022/12/11 03:15:15;;;;;;;16.27;13.07;;;2.70;60.60;;;;;;5017249;28;20087;-78
2022/12/11 03:18:27;;;;;;;14.43;12.48;;;2.80;60.70;;;;;;5014762;28;20159;-79
2022/12/11 03:21:19;;;;;;;15.80;12.02;;;2.80;60.70;;;;;;5017129;28;20539;-80
2022/12/11 03:24:12;;;;;;;15.65;12.43;;;2.80;60.70;;;;;;5027637;28;20056;-80
2022/12/11 03:26:59;;;;;;;;;;;2.80;60.70;;;;;;5023768;28;20107;-79
2022/12/11 03:30:13;;;;;;;14.45;12.15;;;2.80;60.70;;;;;;5025168;28;20290;-79
2022/12/11 03:33:03;;;;;;;13.57;11.63;;;2.80;60.60;;;;;;5022585;28;20075;-80
2022/12/11 03:35:56;;;;;;;14.60;11.20;;;2.80;60.60;;;;;;5020278;28;20585;-79
2022/12/11 03:38:48;;;;;;;17.05;11.93;;;2.80;60.60;;;;;;5023492;28;20134;-80
2022/12/11 03:41:36;;;;;;;13.95;11.25;;;2.80;60.60;;;;;;5024726;28;20544;-79
2022/12/11 03:44:21;;;;;;;15.57;11.90;;;2.80;60.60;;;;;;5022067;28;20076;-79
2022/12/11 03:47:07;;;;;;;14.60;12.60;;;2.90;60.80;;;;;;5021700;28;20097;-78
2022/12/11 03:49:54;;;;;;;14.35;11.60;;;2.80;60.60;;;;;;5009424;28;20048;-79
2022/12/11 03:52:41;;;;;;;15.45;12.68;;;2.80;60.60;;;;;;5026989;28;20211;-79
2022/12/11 03:55:28;;;;;;;12.90;11.57;;;2.90;60.80;;;;;;5025325;28;20161;-78
2022/12/11 03:58:12;;;;;;;13.07;10.90;;;2.90;60.80;;;;;;5026080;28;20739;-79
2022/12/11 04:00:57;;;;;;;15.68;11.98;;;2.80;60.60;;;;;;5024280;28;20500;-79
2022/12/11 04:03:41;;;;;;;14.05;11.75;;;2.90;60.80;;;;;;5008414;28;20436;-79
2022/12/11 04:06:26;;;;;;;12.40;10.77;;;2.90;60.80;;;;;;5012387;28;20036;-79
2022/12/11 04:09:11;;;;;;;15.50;12.50;;;2.90;60.80;;;;;;5010492;28;20060;-79
2022/12/11 04:11:56;;;;;;;14.93;11.70;;;2.90;60.80;;;;;;5024911;28;20028;-79
2022/12/11 04:24:16;;;;;;;14.55;12.52;;;2.90;60.80;;;;;;5026783;28;20520;-80
2022/12/11 04:27:01;;;;;;;13.15;11.18;;;3.00;61.00;;;;;;5028970;28;20126;-80
2022/12/11 04:29:45;;;;;;;13.07;11.57;;;2.90;60.80;;;;;;5028264;28;20044;-81
2022/12/11 04:32:30;;;;;;;14.25;11.27;;;2.90;60.80;;;;;;5021406;28;20484;-79
2022/12/11 04:35:15;;;;;;;14.88;11.32;;;3.00;61.00;;;;;;5033579;28;20163;-79
2022/12/11 04:38:00;;;;;;;14.65;11.35;;;3.00;61.00;;;;;;5014093;28;20099;-81
2022/12/11 04:40:44;;;;;;;14.02;12.15;;;3.00;61.00;;;;;;5017175;28;20068;-79
2022/12/11 04:43:29;;;;;;;13.88;11.85;;;3.00;61.00;;;;;;5026690;28;20052;-79
2022/12/11 04:46:19;;;;;;;13.38;10.93;;;3.00;60.90;;;;;;5007372;28;20187;-79
2022/12/11 04:49:04;;;;;;;12.77;11.43;;;3.00;61.00;;;;;;5019495;28;20040;-79
2022/12/11 04:51:49;;;;;;;14.13;12.15;;;3.00;60.90;;;;;;5029315;28;20075;-79
2022/12/11 04:54:33;;;;;;;13.23;11.45;;;3.00;61.00;;;;;;5017204;28;20100;-78
2022/12/11 04:57:20;;;;;;;15.73;11.02;;;3.00;61.00;;;;;;5029845;28;20401;-80
2022/12/11 05:00:07;;;;;;;13.35;11.27;;;3.00;61.00;;;;;;5000426;28;20152;-80
2022/12/11 05:02:51;;;;;;;11.93;10.68;;;3.00;61.00;;;;;;5021230;28;20175;-80
2022/12/11 05:05:36;;;;;;;14.32;11.70;;;3.00;61.00;;;;;;5029598;28;20045;-81
2022/12/11 05:08:21;;;;;;;13.43;11.63;;;3.00;61.00;;;;;;5013063;28;20587;-81
2022/12/11 05:11:08;;;;;;;12.05;10.77;;;3.00;61.00;;;;;;5027878;28;20977;-80
2022/12/11 05:13:53;;;;;;;14.05;11.27;;;3.00;61.00;;;;;;5025969;28;20143;-79
2022/12/11 05:16:38;;;;;;;13.30;11.75;;;3.00;61.00;;;;;;5030388;28;20578;-79
2022/12/11 05:19:22;;;;;;;13.18;11.20;;;3.10;61.20;;;;;;5014838;28;20167;-79
2022/12/11 05:22:06;;;;;;;12.63;10.95;;;3.00;61.00;;;;;;5028477;28;20048;-80
2022/12/11 05:24:51;;;;;;;14.30;11.48;;;3.10;61.20;;;;;;5028975;28;20071;-79
2022/12/11 05:27:36;;;;;;;13.45;11.32;;;3.10;61.20;;;;;;5030171;28;20091;-78
2022/12/11 05:30:20;;;;;;;12.40;11.10;;;3.10;61.20;;;;;;5039132;28;20047;-79
2022/12/11 05:33:05;;;;;;;11.23;10.13;;;3.10;61.10;;;;;;5029687;28;20159;-79
2022/12/11 05:35:50;;;;;;;12.55;10.90;;;3.10;61.10;;;;;;5018146;28;20033;-79
2022/12/11 05:38:35;;;;;;;11.65;10.32;;;3.10;61.10;;;;;;5029045;28;20125;-79
2022/12/11 05:41:21;;;;;;;12.68;10.45;;;3.20;61.30;;;;;;5024882;28;20095;-80
2022/12/11 05:44:06;;;;;;;13.30;10.40;;;3.20;61.20;;;;;;5025340;28;20056;-79
2022/12/11 05:46:51;;;;;;;13.00;11.00;;;3.10;61.00;;;;;;5006175;28;20056;-78
2022/12/11 05:49:36;;;;;;;12.05;9.98;;;3.20;61.20;;;;;;5029555;28;20048;-77
2022/12/11 05:52:20;;;;;;;12.07;10.52;;;3.20;61.20;;;;;;5007211;28;20048;-79
2022/12/11 05:55:05;;;;;;;12.68;11.10;;;3.20;61.30;;;;;;5029822;28;20617;-79
2022/12/11 05:57:50;;;;;;;13.30;11.15;;;3.20;61.20;;;;;;5018616;28;20401;-79
2022/12/11 06:00:35;;;;;;;12.13;10.63;;;3.20;61.20;;;;;;5031800;28;20738;-78
2022/12/11 06:03:19;;;;;;;11.48;10.27;;;3.20;61.30;;;;;;5033400;28;20127;-78
2022/12/11 06:06:05;;;;;;;11.77;10.50;;;3.20;61.20;;;;;;5046376;28;20099;-78
2022/12/11 06:08:51;;;;;;;10.98;9.88;;;3.20;61.20;;;;;;5042137;28;20041;-79
2022/12/11 06:11:36;;;;;;;12.75;11.43;;;3.20;61.20;;;;;;5042297;28;20496;-78
2022/12/11 06:14:21;;;;;;;14.23;11.20;;;3.20;61.20;;;;;;5046868;28;20040;-78
2022/12/11 06:17:06;;;;;;;11.90;10.65;;;3.20;61.20;;;;;;5042129;28;20099;-78
2022/12/11 06:19:50;;;;;;;13.07;11.45;;;3.20;61.30;;;;;;5058217;28;20072;-76
2022/12/11 06:22:35;;;;;;;12.95;11.55;;;3.30;61.40;;;;;;5051391;28;20055;-78
2022/12/11 06:25:20;;;;;;;14.18;11.63;;;3.30;61.40;;;;;;5033346;28;20040;-77
2022/12/11 06:28:05;;;;;;;15.75;12.00;;;3.30;61.40;;;;;;4999120;28;20456;-77
2022/12/11 06:30:49;;;;;;;11.55;10.30;;;3.30;61.40;;;;;;5023718;28;20082;-77
2022/12/11 06:33:34;;;;;;;13.23;11.55;;;3.30;61.40;;;;;;5027728;28;20099;-77
2022/12/11 06:36:21;;;;;;;14.10;11.32;;;3.30;61.40;;;;;;5024922;28;20099;-77
2022/12/11 06:39:06;;;;;;;13.80;11.30;;;3.30;61.40;;;;;;5024526;28;20036;-78
2022/12/11 06:41:50;;;;;;;14.32;12.18;;;3.30;61.40;;;;;;5012738;28;20111;-76
2022/12/11 06:44:35;;;;;;;12.15;10.85;;;3.30;61.40;;;;;;5009120;28;20636;-77
2022/12/11 06:47:19;;;;;;;13.85;12.20;;;3.30;61.40;;;;;;5000694;28;20055;-76
2022/12/11 06:50:04;;;;;;;14.50;12.18;;;3.30;61.40;;;;;;5023286;28;20113;-76
2022/12/11 06:52:48;;;;;;;13.82;10.88;;;3.30;61.40;;;;;;5024320;28;20037;-76
2022/12/11 06:55:36;;;;;;;13.45;11.52;;;3.30;61.40;;;;;;5022959;28;20091;-76
2022/12/11 06:58:21;;;;;;;12.57;11.05;;;3.40;61.50;;;;;;5020761;28;20464;-76
2022/12/11 07:01:20;;;;;;;14.88;11.77;;;3.30;61.40;;;;;;5021031;28;20076;-75
2022/12/11 07:04:04;;;;;;;13.10;11.80;;;3.40;61.60;;;;;;5023860;28;20091;-76
2022/12/11 07:06:49;;;;;;;15.13;12.10;;;3.30;61.40;;;;;;5001008;28;20076;-77
2022/12/11 07:09:34;;;;;;;15.02;12.30;;;3.40;61.50;;;;;;5021145;28;20066;-77
2022/12/11 07:12:18;;;;;;;15.63;13.00;;;3.40;61.60;;;;;;5024206;28;20456;-78
2022/12/11 07:15:04;;;;;;;13.05;11.25;;;3.40;61.60;;;;;;5012890;28;20500;-75
2022/12/11 07:17:48;;;;;;;13.30;11.45;;;3.40;61.60;;;;;;4999776;28;20052;-78
2022/12/11 07:20:33;;;;;;;15.23;12.85;;;3.40;61.60;;;;;;5021393;28;20136;-78
2022/12/11 07:23:18;;;;;;;15.45;12.27;;;3.40;61.60;;;;;;5020490;28;20102;-76
2022/12/11 07:26:08;;;;;;;14.80;12.07;;;3.40;61.60;;;;;;5022159;28;20113;-79
2022/12/11 07:28:56;;;;;;;16.58;12.52;;;3.40;61.60;;;;;;5020692;28;20040;-79
2022/12/11 07:31:41;;;;;;;13.88;12.02;;;3.40;61.60;;;;;;5017065;28;20087;-79
2022/12/11 07:34:25;;;;;;;13.65;12.25;;;3.40;61.60;;;;;;5026025;28;20064;-79
2022/12/11 07:37:10;;;;;;;14.18;12.38;;;3.40;61.60;;;;;;5023694;28;20080;-79
2022/12/11 07:39:54;;;;;;;13.88;12.35;;;3.40;61.60;;;;;;4993431;28;20048;-79
2022/12/11 07:42:39;;;;;;;14.88;12.50;;;3.50;61.70;;;;;;5022505;28;20053;-78
2022/12/11 07:45:25;;;;;;;16.05;12.52;;;3.40;61.50;;;;;;5007965;28;20075;-79
2022/12/11 07:48:09;;;;;;;17.88;13.18;;;3.50;61.70;;;;;;5006140;28;20104;-79
2022/12/11 07:50:54;;;;;;;14.77;13.20;;;3.50;61.70;;;;;;5007348;28;20107;-79
2022/12/11 07:53:39;;;;;;;15.13;13.40;;;3.50;61.70;;;;;;5022128;28;20160;-78
2022/12/11 07:56:24;;;;;;;17.73;13.35;;;3.50;61.70;;;;;;5020178;28;20458;-76
2022/12/11 07:59:09;;;;;;;15.07;13.10;;;3.50;61.70;;;;;;5006370;28;20064;-76
2022/12/11 08:01:54;;;;;;;14.18;12.18;;;3.50;61.70;;;;;;5020584;28;20523;-77
2022/12/11 08:04:38;;;;;;;16.73;13.30;;;3.50;61.70;;;;;;5005718;28;20253;-77
2022/12/11 08:07:23;;;;;;;17.52;14.05;;;3.50;61.70;;;;;;5008399;28;20057;-77
2022/12/11 08:10:08;;;;;;;15.50;13.07;;;3.50;61.70;;;;;;5022175;28;20523;-77
2022/12/11 08:12:52;;;;;;;16.85;13.52;;;3.50;61.70;;;;;;5021052;28;20103;-77
2022/12/11 08:15:37;;;;;;;17.27;14.57;;;3.50;61.70;;;;;;5004309;28;20599;-77
2022/12/11 08:18:21;;;;;;;14.98;12.93;;;3.50;61.70;;;;;;5018421;28;20072;-78
2022/12/11 08:21:07;;;;;;;18.20;13.70;;;3.50;61.70;;;;;;5007558;28;20475;-75
2022/12/11 08:23:52;;;;;;;15.63;13.55;;;3.50;61.70;;;;;;5006644;28;20060;-76
2022/12/11 08:26:37;;;;;;;16.80;13.40;;;3.60;61.90;;;;;;5022716;28;20080;-78
2022/12/11 08:29:21;;;;;;;17.17;13.43;;;3.50;61.60;;;;;;5016148;28;20432;-77
2022/12/11 08:32:06;;;;;;;15.07;13.50;;;3.60;61.80;;;;;;5023566;28;20088;-78
2022/12/11 08:34:51;;;;;;;15.32;12.88;;;3.60;61.80;;;;;;5022341;28;20085;-78
2022/12/11 08:37:36;;;;;;;18.08;14.50;;;3.60;61.80;;;;;;5022110;28;20083;-78
2022/12/11 08:40:20;;;;;;;16.60;13.98;;;3.60;62.30;;;;;;5004711;28;20044;-79
2022/12/11 08:43:05;;;;;;;15.30;13.65;;;3.60;61.80;;;;;;5023828;28;20064;-78
2022/12/11 08:45:50;;;;;;;14.98;12.40;;;3.60;61.70;;;;;;5005872;28;20040;-78
2022/12/11 08:48:37;;;;;;;15.38;13.60;;;3.60;61.80;;;;;;5010405;28;20072;-76
2022/12/11 08:51:26;;;;;;;16.77;14.18;;;3.60;61.70;;;;;;5026757;28;20072;-77
2022/12/11 08:54:11;;;;;;;15.35;13.13;;;3.70;61.90;;;;;;5026772;28;20044;-77
2022/12/11 08:56:56;;;;;;;17.58;14.93;;;3.70;61.90;;;;;;5020478;28;20115;-76
2022/12/11 08:59:40;;;;;;;14.23;12.73;;;3.70;61.80;;;;;;5019430;28;20049;-77
2022/12/11 09:02:25;;;;;;;15.88;12.60;;;3.70;61.80;;;;;;5011879;28;20090;-76
2022/12/11 09:05:10;;;;;;;15.18;12.85;;;3.70;61.80;;;;;;5006500;28;20091;-77
2022/12/11 09:07:54;;;;;;;17.45;13.48;;;3.70;61.80;;;;;;5020147;28;20548;-76
2022/12/11 09:10:39;;;;;;;16.73;13.85;;;3.80;61.90;;;;;;5024010;28;20396;-76
2022/12/11 09:13:24;;;;;;;16.25;13.40;;;3.80;61.90;;;;;;5025320;28;20400;-80
2022/12/11 09:16:11;;;;;;;16.13;13.85;;;3.80;61.80;;;;;;5009771;28;20641;-76
2022/12/11 09:18:57;;;;;;;15.73;13.05;;;3.90;61.90;;;;;;5018771;28;20109;-76
2022/12/11 09:21:42;;;;;;;14.68;13.07;;;4.00;62.10;;;;;;4996107;28;20044;-75
2022/12/11 09:24:27;;;;;;;16.52;14.13;;;4.00;61.90;;;;;;5025139;28;20043;-78
2022/12/11 09:27:12;;;;;;;16.00;13.25;;;4.10;61.90;;;;;;5024502;28;20047;-77
2022/12/11 09:29:56;;;;;;;15.52;12.52;;;4.20;62.00;;;;;;5020298;28;20048;-77
2022/12/11 09:32:40;;;;;;;13.68;12.18;;;4.20;61.80;;;;;;5014757;28;20106;-77
2022/12/11 09:35:25;;;;;;;15.23;12.90;;;4.20;61.70;;;;;;5022023;28;20095;-81
2022/12/11 09:38:10;;;;;;;15.27;12.80;;;4.30;61.90;;;;;;5024601;28;20083;-78
2022/12/11 09:40:54;;;;;;;15.55;13.15;;;4.30;61.80;;;;;;4999871;28;20064;-81
2022/12/11 09:44:01;;;;;;;16.08;13.65;;;4.40;62.00;;;;;;5020007;28;20056;-80
2022/12/11 09:46:46;;;;;;;16.75;14.35;;;4.40;61.90;;;;;;5004957;28;20061;-82
2022/12/11 09:49:41;;;;;;;16.40;13.25;;;4.40;61.80;;;;;;4991169;28;20140;-85
2022/12/11 09:52:33;;;;;;;19.13;14.27;;;4.40;61.80;;;;;;5000538;28;20039;-83
2022/12/11 09:55:23;;;;;;;18.00;14.32;;;4.50;62.00;;;;;;5012183;28;20040;-77
2022/12/11 09:58:55;;;;;;;14.88;12.95;;;4.50;62.40;;;;;;5017772;28;20267;-77
2022/12/11 10:01:56;;;;;;;17.92;13.18;;;4.50;61.80;;;;;;5018392;28;20142;-76
2022/12/11 10:05:11;;;;;;;16.92;14.00;;;4.60;62.00;;;;;;5025165;28;20044;-78
2022/12/11 10:07:59;;;;;;;16.15;13.48;;;4.60;61.90;;;;;;5025122;28;20460;-79
2022/12/11 10:10:49;;;;;;;16.83;13.45;;;4.70;62.00;;;;;;5013260;28;20052;-77
2022/12/11 10:13:59;;;;;;;18.13;14.32;;;4.70;61.90;;;;;;5022162;28;20040;-76
2022/12/11 10:16:49;;;;;;;14.57;12.73;;;4.70;61.80;;;;;;5020148;28;20466;-77
2022/12/11 10:19:34;;;;;;;16.95;12.82;;;4.80;61.90;;;;;;5022417;28;20134;-77
2022/12/11 10:22:29;;;;;;;18.23;14.52;;;4.80;61.80;;;;;;5019603;28;20040;-75
2022/12/11 10:25:19;;;;;;;15.93;14.23;;;4.80;61.80;;;;;;5023428;28;20315;-74
2022/12/11 10:28:16;;;;;;;18.08;14.57;;;4.80;61.70;;;;;;5017776;28;20040;-75
2022/12/11 10:31:17;;;;;;;15.48;13.10;;;4.80;61.70;;;;;;4997297;28;20057;-76
2022/12/11 10:34:03;;;;;;;16.65;13.25;;;4.80;61.70;;;;;;5014322;28;20045;-76
2022/12/11 10:36:48;;;;;;;16.63;13.20;;;4.80;61.70;;;;;;5006475;28;20044;-77
2022/12/11 10:39:32;;;;;;;18.13;14.65;;;4.90;61.90;;;;;;5022284;28;20176;-77
2022/12/11 10:42:21;;;;;;;17.02;13.70;;;4.90;61.90;;;;;;4999285;28;20056;-77
2022/12/11 10:45:05;;;;;;;16.73;13.82;;;4.90;61.90;;;;;;5019078;28;20072;-77
2022/12/11 10:48:01;;;;;;;19.20;13.80;;;4.90;61.80;;;;;;4992963;28;20519;-77
2022/12/11 10:51:00;;;;;;;19.10;14.48;;;4.90;61.80;;;;;;5012853;28;20087;-76
2022/12/11 10:53:50;;;;;;;19.52;14.18;;;4.90;61.70;;;;;;5022104;28;20052;-76
2022/12/11 10:56:36;;;;;;;22.85;17.23;;;4.90;61.70;;;;;;5018658;28;20136;-76
2022/12/11 10:59:32;;;;;;;23.40;17.58;;;4.90;61.70;;;;;;5017234;28;20633;-75
2022/12/11 11:02:21;;;;;;;22.60;15.93;;;5.00;61.80;;;;;;5019984;28;20048;-76
2022/12/11 11:05:28;;;;;;;24.00;16.02;;;5.00;61.80;;;;;;5019114;28;20050;-76
2022/12/11 11:08:18;;;;;;;23.27;15.82;;;5.00;61.70;;;;;;5022494;28;20036;-76
2022/12/11 11:11:07;;;;;;;21.13;17.10;;;5.00;61.70;;;;;;5018423;28;20061;-77
2022/12/11 11:14:08;;;;;;;22.80;16.13;;;5.10;61.80;;;;;;5017957;28;20585;-75
2022/12/11 11:16:56;;;;;;;21.60;15.30;;;5.20;61.80;;;;;;5001934;28;20189;-77
2022/12/11 11:19:44;;;;;;;20.45;15.70;;;5.20;61.70;;;;;;5022585;28;20554;-76
2022/12/11 11:22:31;;;;;;;21.73;16.35;;;5.40;61.90;;;;;;5021263;28;20618;-77
2022/12/11 11:25:21;;;;;;;23.10;16.15;;;5.50;61.80;;;;;;5022922;28;20269;-76
2022/12/11 11:28:15;;;;;;;20.88;16.15;;;5.60;61.70;;;;;;5004494;28;20531;-77
2022/12/11 11:31:06;;;;;;;23.77;15.85;;;5.70;61.70;;;;;;5033828;28;20068;-75
2022/12/11 11:33:56;;;;;;;21.38;16.73;;;5.80;61.60;;;;;;5023978;28;20067;-76
2022/12/11 11:36:40;;;;;;;22.63;15.85;;;5.90;61.60;;;;;;5023532;28;20171;-75
2022/12/11 11:39:28;;;;;;;20.58;16.33;;;6.00;61.60;;;;;;5021077;28;20098;-76
2022/12/11 11:42:26;;;;;;;17.45;14.10;;;6.10;61.60;;;;;;5023123;28;20048;-77
2022/12/11 11:45:21;;;;;;;20.92;14.60;;;6.20;61.90;;;;;;5003913;28;20307;-77
2022/12/11 11:48:29;;;;;;;19.40;15.00;;;6.30;62.00;;;;;;5010854;28;20060;-77
2022/12/11 11:51:34;;;;;;;18.92;14.18;;;6.40;62.50;;;;;;5014459;28;20052;-79
2022/12/11 11:54:32;;;;;;;18.00;13.55;;;6.50;62.00;;;;;;4987829;28;20064;-78
2022/12/11 11:57:46;;;;;;;17.73;13.18;;;6.50;61.90;;;;;;4994721;28;20036;-78
2022/12/11 12:00:31;;;;;;;17.17;13.60;;;6.50;61.90;;;;;;5021938;28;20049;-77
2022/12/11 12:03:17;;;;;;;19.80;14.65;;;6.50;61.90;;;;;;5020215;28;20052;-75
2022/12/11 12:06:12;;;;;;;19.13;13.98;;;6.50;62.00;;;;;;5023025;28;20049;-76
2022/12/11 12:09:05;;;;;;;19.42;15.38;;;6.50;62.00;;;;;;5015420;28;20590;-76
2022/12/11 12:12:01;;;;;;;19.45;15.45;;;6.50;61.90;;;;;;5005159;28;20088;-74
2022/12/11 12:15:07;;;;;;;20.58;15.63;;;6.50;62.00;;;;;;5021176;28;20048;-74
2022/12/11 12:18:00;;;;;;;19.77;15.63;;;6.50;62.00;;;;;;5013620;28;20130;-75
2022/12/11 12:20:51;;;;;;;19.77;15.73;;;6.50;62.00;;;;;;5012144;28;20052;-80
2022/12/11 12:23:39;;;;;;;18.42;14.30;;;6.60;62.00;;;;;;5020125;28;20689;-77
2022/12/11 12:26:36;;;;;;;19.17;14.80;;;6.60;62.00;;;;;;5001059;28;20044;-76
2022/12/11 12:29:43;;;;;;;21.17;16.48;;;6.70;62.10;;;;;;5014512;28;20543;-77
2022/12/11 12:32:38;;;;;;;18.63;15.45;;;6.80;62.10;;;;;;5024203;28;20040;-75
2022/12/11 12:35:36;;;;;;;20.80;17.13;;;6.90;62.10;;;;;;5018645;28;20200;-77
2022/12/11 12:38:34;;;;;;;19.88;15.25;;;6.90;62.00;;;;;;5020521;28;20079;-77
2022/12/11 12:41:42;;;;;;;19.23;15.68;;;6.90;62.00;;;;;;5021110;28;20048;-79
2022/12/11 12:44:33;;;;;;;18.88;15.70;;;6.90;62.00;;;;;;4981335;28;20048;-78
2022/12/11 12:47:17;;;;;;;19.10;16.30;;;6.90;62.00;;;;;;5021812;28;20061;-79
2022/12/11 12:50:03;;;;;;;19.10;15.85;;;6.90;62.00;;;;;;5015917;28;20052;-78
2022/12/11 12:52:50;;;;;;;17.83;14.55;;;6.90;62.00;;;;;;5021780;28;20528;-80
2022/12/11 12:55:35;;;;;;;17.17;14.75;;;6.90;61.90;;;;;;5009659;28;20091;-78
2022/12/11 12:58:34;;;;;;;17.48;14.50;;;6.90;62.00;;;;;;5022406;28;20515;-77
2022/12/11 13:01:24;;;;;;;18.05;14.85;;;7.00;62.20;;;;;;5020656;28;20102;-77
2022/12/11 13:04:27;;;;;;;17.48;13.88;;;7.00;62.10;;;;;;5019541;28;20196;-78
2022/12/11 13:07:17;;;;;;;17.58;14.73;;;7.00;61.90;;;;;;5019135;28;20099;-77
2022/12/11 13:10:06;;;;;;;18.90;14.38;;;7.10;62.60;;;;;;5020749;28;20044;-77
2022/12/11 13:12:51;;;;;;;15.82;13.73;;;7.00;61.80;;;;;;5021840;28;20102;-80
2022/12/11 13:15:42;;;;;;;17.60;14.13;;;7.00;61.80;;;;;;5020911;28;20107;-78
2022/12/11 13:18:32;;;;;;;18.77;15.35;;;7.00;61.80;;;;;;5018221;28;20045;-78
2022/12/11 13:21:35;;;;;;;18.13;15.13;;;7.00;61.80;;;;;;5014945;28;20057;-78
2022/12/11 13:24:19;;;;;;;16.70;13.88;;;7.00;61.70;;;;;;5021257;28;20099;-80
2022/12/11 13:27:09;;;;;;;18.25;14.82;;;7.00;61.70;;;;;;5018603;28;20037;-78
2022/12/11 13:30:06;;;;;;;17.70;14.02;;;6.90;61.60;;;;;;5025779;28;20148;-78
2022/12/11 13:33:01;;;;;;;15.68;13.93;;;6.90;61.70;;;;;;5019953;28;20545;-77
2022/12/11 13:35:46;;;;;;;17.92;14.82;;;7.00;61.90;;;;;;5012320;28;20192;-76
2022/12/11 13:38:31;;;;;;;18.02;14.98;;;7.00;61.90;;;;;;5024558;28;20262;-78
2022/12/11 13:41:19;;;;;;;17.75;14.07;;;6.90;61.80;;;;;;5015559;28;20102;-78
2022/12/11 13:44:05;;;;;;;16.90;13.90;;;6.90;61.80;;;;;;5002715;28;20052;-77
2022/12/11 13:46:54;;;;;;;15.68;13.80;;;6.80;61.70;;;;;;5022173;28;20260;-76
2022/12/11 13:49:41;;;;;;;18.20;14.65;;;6.80;61.80;;;;;;5008409;28;20092;-77
2022/12/11 13:52:27;;;;;;;15.95;13.82;;;6.80;61.80;;;;;;5016863;28;20099;-76
2022/12/11 13:55:21;;;;;;;17.23;14.52;;;6.70;61.70;;;;;;5022555;28;20125;-76
2022/12/11 13:58:21;;;;;;;16.63;13.93;;;6.60;61.50;;;;;;5019759;28;20448;-76
2022/12/11 14:01:19;;;;;;;17.85;14.07;;;6.60;61.50;;;;;;5019063;28;20298;-77
2022/12/11 14:04:14;;;;;;;16.17;13.93;;;6.60;61.60;;;;;;5018300;28;20051;-79
2022/12/11 14:07:00;;;;;;;17.48;14.45;;;6.60;61.60;;;;;;5029277;28;20068;-80
2022/12/11 14:09:45;;;;;;;17.80;14.60;;;6.60;61.60;;;;;;5021016;28;20036;-82
2022/12/11 14:12:31;;;;;;;20.63;15.80;;;6.60;61.60;;;;;;5021265;28;20579;-79
2022/12/11 14:15:16;;;;;;;18.52;15.10;;;6.60;61.60;;;;;;5019368;28;20040;-80
2022/12/11 14:18:00;;;;;;;15.90;14.15;;;6.60;61.60;;;;;;5015891;28;20098;-92
2022/12/11 14:20:52;;;;;;;19.00;15.00;;;6.70;61.70;;;;;;5022157;28;20048;-76
2022/12/11 14:23:37;;;;;;;17.77;14.93;;;6.70;62.10;;;;;;5014749;28;20049;-76
2022/12/11 14:26:25;;;;;;;16.85;14.32;;;6.70;61.40;;;;;;5016224;28;20037;-79
2022/12/11 14:29:23;;;;;;;19.05;15.10;;;6.70;61.30;;;;;;5014713;28;20052;-79
2022/12/11 14:32:11;;;;;;;17.42;14.50;;;6.80;61.40;;;;;;5016277;28;20204;-79
2022/12/11 14:34:57;;;;;;;18.23;14.82;;;6.80;61.40;;;;;;5009301;28;20053;-76
2022/12/11 14:37:42;;;;;;;17.52;14.68;;;6.80;61.30;;;;;;5021990;28;20036;-76
2022/12/11 14:40:33;;;;;;;18.40;14.18;;;6.80;61.30;;;;;;5023559;28;20092;-77